createdAt,value
2018-12-03T00:02:11.511Z,7.70
2018-12-03T00:04:44.220Z,7.70
2018-12-03T00:07:16.456Z,7.60
2018-12-03T00:09:48.789Z,7.50
2018-12-03T00:12:21.396Z,7.80
2018-12-03T00:14:53.559Z,7.40
2018-12-03T00:17:26.146Z,7.30
2018-12-03T00:19:58.462Z,7.40
2018-12-03T00:22:31.048Z,7.40
2018-12-03T00:25:03.506Z,7.60
2018-12-03T00:27:35.830Z,7.10
2018-12-03T00:30:10.042Z,7.00
2018-12-03T00:32:42.197Z,7.00
2018-12-03T00:35:14.733Z,7.00
2018-12-03T00:37:47.115Z,7.00
2018-12-03T00:40:19.500Z,7.00
2018-12-03T00:42:51.749Z,7.00
2018-12-03T00:45:24.078Z,7.00
2018-12-03T00:47:56.221Z,6.70
2018-12-03T00:50:28.786Z,6.90
2018-12-03T00:53:01.431Z,6.70
2018-12-03T00:55:33.752Z,6.30
2018-12-03T00:58:06.429Z,6.30
2018-12-03T01:00:39.035Z,6.30
2018-12-03T01:03:11.298Z,6.10
2018-12-03T01:05:44.268Z,6.00
2018-12-03T01:08:16.856Z,6.00
2018-12-03T01:10:49.204Z,5.80
2018-12-03T01:13:21.611Z,5.70
2018-12-03T01:15:54.005Z,5.80
2018-12-03T01:18:26.142Z,5.40
2018-12-03T01:20:58.275Z,5.50
2018-12-03T01:23:30.900Z,5.00
2018-12-03T01:26:03.420Z,5.00
2018-12-03T01:28:35.782Z,5.30
2018-12-03T01:31:08.038Z,5.10
2018-12-03T01:33:40.576Z,5.10
2018-12-03T01:36:13.144Z,5.10
2018-12-03T01:38:45.517Z,5.00
2018-12-03T01:41:17.651Z,5.10
2018-12-03T01:43:50.210Z,5.00
2018-12-03T01:46:22.779Z,5.10
2018-12-03T01:48:56.238Z,4.90
2018-12-03T01:51:28.494Z,4.80
2018-12-03T01:54:00.754Z,4.90
2018-12-03T01:56:32.864Z,4.90
2018-12-03T01:59:05.388Z,5.10
2018-12-03T02:01:37.761Z,4.90
2018-12-03T02:04:10.018Z,5.20
2018-12-03T02:06:42.393Z,5.10
2018-12-03T02:09:14.811Z,4.80
2018-12-03T02:11:47.311Z,4.80
2018-12-03T02:14:19.809Z,4.80
2018-12-03T02:16:52.279Z,4.90
2018-12-03T02:19:24.610Z,4.80
2018-12-03T02:21:57.004Z,4.60
2018-12-03T02:24:30.166Z,4.60
2018-12-03T02:27:02.663Z,4.40
2018-12-03T02:29:35.371Z,4.50
2018-12-03T02:32:08.181Z,4.50
2018-12-03T02:34:40.404Z,4.20
2018-12-03T02:37:13.361Z,4.30
2018-12-03T02:39:45.737Z,4.00
2018-12-03T02:42:17.838Z,4.30
2018-12-03T02:44:49.975Z,4.30
2018-12-03T02:47:22.508Z,4.30
2018-12-03T02:49:54.968Z,4.40
2018-12-03T02:52:27.334Z,4.30
2018-12-03T02:54:59.422Z,4.30
2018-12-03T02:57:31.608Z,4.30
2018-12-03T03:00:04.340Z,4.30
2018-12-03T03:02:36.517Z,4.10
2018-12-03T03:05:13.222Z,4.30
2018-12-03T03:07:45.736Z,4.20
2018-12-03T03:10:18.519Z,4.50
2018-12-03T03:12:51.344Z,4.60
2018-12-03T03:15:23.492Z,4.60
2018-12-03T03:17:55.847Z,4.50
2018-12-03T03:20:28.287Z,4.60
2018-12-03T03:23:00.532Z,4.50
2018-12-03T03:25:32.388Z,4.60
2018-12-03T03:28:04.972Z,4.50
2018-12-03T03:30:37.898Z,4.50
2018-12-03T03:33:10.662Z,4.50
2018-12-03T03:35:42.719Z,4.10
2018-12-03T03:38:15.230Z,4.30
2018-12-03T03:40:47.564Z,4.30
2018-12-03T03:43:19.944Z,4.30
2018-12-03T03:45:52.051Z,3.70
2018-12-03T03:48:24.132Z,4.10
2018-12-03T03:50:56.765Z,4.00
2018-12-03T03:53:28.858Z,3.90
2018-12-03T03:56:00.771Z,4.00
2018-12-03T03:58:32.630Z,3.50
2018-12-03T04:01:05.457Z,3.90
2018-12-03T04:03:38.083Z,4.00
2018-12-03T04:06:10.789Z,3.70
2018-12-03T04:08:43.864Z,3.90
2018-12-03T04:11:16.424Z,3.90
2018-12-03T04:13:49.145Z,4.00
2018-12-03T04:16:21.419Z,3.90
2018-12-03T04:18:53.907Z,4.10
2018-12-03T04:21:26.111Z,4.00
2018-12-03T04:23:58.728Z,4.30
2018-12-03T04:26:31.824Z,4.30
2018-12-03T04:29:04.060Z,4.30
2018-12-03T04:31:36.358Z,4.20
2018-12-03T04:34:09.234Z,4.20
2018-12-03T04:36:42.619Z,4.20
2018-12-03T04:39:15.495Z,4.30
2018-12-03T04:41:48.109Z,4.00
2018-12-03T04:44:20.911Z,4.10
2018-12-03T04:46:53.516Z,4.20
2018-12-03T04:49:25.279Z,4.30
2018-12-03T04:51:57.824Z,4.00
2018-12-03T04:54:30.697Z,4.30
2018-12-03T04:57:03.149Z,4.00
2018-12-03T04:59:35.746Z,4.20
2018-12-03T05:02:08.670Z,4.00
2018-12-03T05:04:41.463Z,3.80
2018-12-03T05:07:13.903Z,4.00
2018-12-03T05:09:45.976Z,3.70
2018-12-03T05:12:18.386Z,4.00
2018-12-03T05:14:50.934Z,3.70
2018-12-03T05:17:23.086Z,3.90
2018-12-03T05:19:55.436Z,3.70
2018-12-03T05:22:27.576Z,4.00
2018-12-03T05:25:00.466Z,3.70
2018-12-03T05:27:32.233Z,4.00
2018-12-03T05:30:04.171Z,3.80
2018-12-03T05:32:36.581Z,4.00
2018-12-03T05:35:10.803Z,3.70
2018-12-03T05:37:43.641Z,4.20
2018-12-03T05:40:20.074Z,4.00
2018-12-03T05:42:52.264Z,4.00
2018-12-03T05:45:24.102Z,3.80
2018-12-03T05:47:56.165Z,3.80
2018-12-03T05:50:28.818Z,3.90
2018-12-03T05:53:01.195Z,3.90
2018-12-03T05:55:34.127Z,3.70
2018-12-03T05:58:06.688Z,3.70
2018-12-03T06:00:38.989Z,3.90
2018-12-03T06:03:11.880Z,3.70
2018-12-03T06:05:44.275Z,4.00
2018-12-03T06:08:17.351Z,3.70
2018-12-03T06:10:49.625Z,3.90
2018-12-03T06:13:22.075Z,3.60
2018-12-03T06:15:54.217Z,3.40
2018-12-03T06:18:26.643Z,3.70
2018-12-03T06:20:58.859Z,3.70
2018-12-03T06:23:31.222Z,3.40
2018-12-03T06:26:03.586Z,3.70
2018-12-03T06:28:36.143Z,3.60
2018-12-03T06:32:14.206Z,3.40
2018-12-03T06:35:37.595Z,3.60
2018-12-03T06:38:15.142Z,3.50
2018-12-03T06:40:42.228Z,3.20
2018-12-03T06:43:14.522Z,3.40
2018-12-03T06:45:47.108Z,3.40
2018-12-03T06:48:21.420Z,3.00
2018-12-03T06:50:53.608Z,2.90
2018-12-03T06:53:25.799Z,2.80
2018-12-03T06:55:57.858Z,3.00
2018-12-03T06:58:30.043Z,2.70
2018-12-03T07:01:02.470Z,2.60
2018-12-03T07:03:35.032Z,2.60
2018-12-03T07:06:07.298Z,2.30
2018-12-03T07:08:39.710Z,2.60
2018-12-03T07:11:12.101Z,2.40
2018-12-03T07:13:44.367Z,2.30
2018-12-03T07:16:16.982Z,2.40
2018-12-03T07:18:49.349Z,2.80
2018-12-03T07:21:21.415Z,2.70
2018-12-03T07:23:53.527Z,2.50
2018-12-03T07:26:25.928Z,2.60
2018-12-03T07:28:58.402Z,2.60
2018-12-03T07:31:30.570Z,2.60
2018-12-03T07:34:03.465Z,2.50
2018-12-03T07:36:35.759Z,2.60
2018-12-03T07:39:09.091Z,2.60
2018-12-03T07:41:41.499Z,2.60
2018-12-03T07:44:13.881Z,2.30
2018-12-03T07:46:46.272Z,2.30
2018-12-03T07:49:18.397Z,2.50
2018-12-03T07:51:50.806Z,2.30
2018-12-03T07:54:23.074Z,2.20
2018-12-03T07:56:55.394Z,2.30
2018-12-03T07:59:27.645Z,2.00
2018-12-03T08:02:00.033Z,2.10
2018-12-03T08:04:32.425Z,2.00
2018-12-03T08:07:04.638Z,2.20
2018-12-03T08:09:37.425Z,2.10
2018-12-03T08:12:09.923Z,2.10
2018-12-03T08:14:42.476Z,2.00
2018-12-03T08:17:14.671Z,2.00
2018-12-03T08:19:47.298Z,2.00
2018-12-03T08:22:19.411Z,1.80
2018-12-03T08:24:51.547Z,1.80
2018-12-03T08:27:24.455Z,1.70
2018-12-03T08:29:56.707Z,1.70
2018-12-03T08:32:29.113Z,1.60
2018-12-03T08:35:01.464Z,2.00
2018-12-03T08:37:33.646Z,1.60
2018-12-03T08:40:06.455Z,1.70
2018-12-03T08:42:39.795Z,1.60
2018-12-03T08:45:12.153Z,1.60
2018-12-03T08:47:44.798Z,1.60
2018-12-03T08:50:22.955Z,1.60
2018-12-03T08:52:55.423Z,1.70
2018-12-03T08:55:27.959Z,1.50
2018-12-03T08:58:00.393Z,1.50
2018-12-03T09:00:33.064Z,1.40
2018-12-03T09:03:09.794Z,1.60
2018-12-03T09:05:42.567Z,1.50
2018-12-03T09:08:15.041Z,1.70
2018-12-03T09:10:47.599Z,1.50
2018-12-03T09:13:23.122Z,1.60
2018-12-03T09:16:00.433Z,1.50
2018-12-03T09:18:36.551Z,1.30
2018-12-03T09:21:13.724Z,1.30
2018-12-03T09:23:47.103Z,1.50
2018-12-03T09:26:19.384Z,1.20
2018-12-03T09:28:51.790Z,1.30
2018-12-03T09:31:25.589Z,1.30
2018-12-03T09:33:59.765Z,1.30
2018-12-03T09:36:32.095Z,1.40
2018-12-03T09:39:12.052Z,1.60
2018-12-03T09:41:44.500Z,1.50
2018-12-03T09:44:16.668Z,1.40
2018-12-03T09:46:49.220Z,1.60
2018-12-03T09:49:21.640Z,1.50
2018-12-03T09:51:53.907Z,1.30
2018-12-03T09:54:26.121Z,1.40
2018-12-03T09:56:58.839Z,1.30
2018-12-03T09:59:31.134Z,1.40
2018-12-03T10:02:04.784Z,1.40
2018-12-03T10:04:40.881Z,1.50
2018-12-03T10:07:18.249Z,1.50
2018-12-03T10:09:50.794Z,1.30
2018-12-03T10:12:23.520Z,1.50
2018-12-03T10:14:56.334Z,1.50
2018-12-03T10:17:28.316Z,1.60
2018-12-03T10:20:06.491Z,1.30
2018-12-03T10:22:39.013Z,1.60
2018-12-03T10:25:14.977Z,1.60
2018-12-03T10:27:47.251Z,1.70
2018-12-03T10:30:22.591Z,1.40
2018-12-03T10:32:55.458Z,1.50
2018-12-03T10:35:34.224Z,1.70
2018-12-03T10:38:17.749Z,1.60
2018-12-03T10:40:53.685Z,1.80
2018-12-03T10:43:26.070Z,1.80
2018-12-03T10:45:58.399Z,2.00
2018-12-03T10:48:30.931Z,2.00
2018-12-03T10:51:03.837Z,2.10
2018-12-03T10:53:36.174Z,2.10
2018-12-03T10:56:08.742Z,2.20
2018-12-03T10:58:42.651Z,2.00
2018-12-03T11:01:19.539Z,2.10
2018-12-03T11:03:56.509Z,2.50
2018-12-03T11:06:28.910Z,2.30
2018-12-03T11:09:01.188Z,2.30
2018-12-03T11:11:33.328Z,2.50
2018-12-03T11:14:07.607Z,2.30
2018-12-03T11:16:40.901Z,2.30
2018-12-03T11:19:13.513Z,2.50
2018-12-03T11:21:46.047Z,2.30
2018-12-03T11:24:19.186Z,2.30
2018-12-03T11:26:52.619Z,2.30
2018-12-03T11:29:25.198Z,2.20
2018-12-03T11:31:57.944Z,2.10
2018-12-03T11:34:30.201Z,2.10
2018-12-03T11:37:03.923Z,2.20
2018-12-03T11:39:47.524Z,2.20
2018-12-03T11:42:19.893Z,2.10
2018-12-03T11:44:52.239Z,2.00
2018-12-03T11:47:24.423Z,2.00
2018-12-03T11:49:56.892Z,1.90
2018-12-03T11:52:29.176Z,1.70
2018-12-03T11:55:01.784Z,1.50
2018-12-03T11:57:34.073Z,1.70
2018-12-03T12:00:07.050Z,1.70
2018-12-03T12:02:39.306Z,1.40
2018-12-03T12:05:11.774Z,1.30
2018-12-03T12:07:44.293Z,1.30
2018-12-03T12:10:16.530Z,1.40
2018-12-03T12:12:49.551Z,1.10
2018-12-03T12:15:22.075Z,1.00
2018-12-03T12:17:54.516Z,1.00
2018-12-03T12:20:26.712Z,0.90
2018-12-03T12:22:58.925Z,0.90
2018-12-03T12:25:31.135Z,0.90
2018-12-03T12:28:03.297Z,0.90
2018-12-03T12:30:35.473Z,0.90
2018-12-03T12:33:07.709Z,0.80
2018-12-03T12:35:39.791Z,0.70
2018-12-03T12:38:11.986Z,0.60
2018-12-03T12:40:44.366Z,0.60
2018-12-03T12:43:16.829Z,0.60
2018-12-03T12:45:55.265Z,0.50
2018-12-03T12:48:27.627Z,0.40
2018-12-03T12:51:00.016Z,0.40
2018-12-03T12:53:32.371Z,0.40
2018-12-03T12:56:04.703Z,0.40
2018-12-03T12:58:36.904Z,0.40
2018-12-03T13:01:08.816Z,0.40
2018-12-03T13:03:41.306Z,0.40
2018-12-03T13:06:13.978Z,0.10
2018-12-03T13:08:46.400Z,0.20
2018-12-03T13:11:18.979Z,0.20
2018-12-03T13:13:51.603Z,-0.10
2018-12-03T13:16:24.194Z,0.10
2018-12-03T13:18:56.987Z,0.10
2018-12-03T13:21:29.548Z,0.00
2018-12-03T13:24:01.716Z,0.10
2018-12-03T13:26:34.542Z,0.10
2018-12-03T13:29:07.179Z,0.20
2018-12-03T13:31:39.391Z,0.40
2018-12-03T13:34:11.907Z,0.40
2018-12-03T13:36:44.118Z,0.20
2018-12-03T13:39:16.348Z,0.30
2018-12-03T13:41:48.440Z,0.40
2018-12-03T13:44:20.849Z,0.20
2018-12-03T13:46:52.990Z,0.40
2018-12-03T13:49:25.168Z,0.60
2018-12-03T13:51:57.723Z,0.70
2018-12-03T13:54:30.091Z,0.40
2018-12-03T13:57:02.426Z,0.50
2018-12-03T13:59:34.798Z,0.80
2018-12-03T14:02:09.110Z,0.80
2018-12-03T14:04:41.716Z,0.80
2018-12-03T14:07:24.301Z,1.00
2018-12-03T14:10:33.966Z,0.90
2018-12-03T14:13:10.436Z,1.10
2018-12-03T14:15:57.705Z,1.00
2018-12-03T14:18:36.799Z,0.90
2018-12-03T14:21:16.405Z,1.10
2018-12-03T14:23:50.266Z,1.20
2018-12-03T14:26:22.588Z,1.10
2018-12-03T14:28:55.086Z,1.30
2018-12-03T14:31:27.719Z,1.20
2018-12-03T14:34:00.044Z,1.40
2018-12-03T14:36:32.425Z,1.50
2018-12-03T14:39:06.333Z,1.30
2018-12-03T14:41:38.764Z,1.40
2018-12-03T14:44:11.194Z,1.20
2018-12-03T14:46:43.586Z,1.50
2018-12-03T14:49:15.984Z,1.40
2018-12-03T14:51:48.108Z,1.50
2018-12-03T14:54:20.464Z,1.50
2018-12-03T14:56:52.729Z,1.60
2018-12-03T14:59:25.167Z,1.70
2018-12-03T15:01:57.627Z,1.80
2018-12-03T15:04:29.706Z,1.80
2018-12-03T15:07:01.697Z,1.80
2018-12-03T15:09:33.848Z,1.80
2018-12-03T15:12:06.296Z,2.00
2018-12-03T15:14:38.551Z,1.80
2018-12-03T15:17:10.760Z,2.00
2018-12-03T15:19:42.878Z,2.10
2018-12-03T15:22:15.739Z,2.00
2018-12-03T15:24:47.927Z,2.10
2018-12-03T15:27:20.463Z,2.10
2018-12-03T15:29:52.856Z,1.90
2018-12-03T15:32:25.133Z,2.00
2018-12-03T15:34:57.280Z,2.10
2018-12-03T15:37:29.302Z,2.10
2018-12-03T15:40:01.445Z,2.10
2018-12-03T15:42:33.554Z,2.10
2018-12-03T15:45:06.504Z,2.20
2018-12-03T15:47:38.853Z,2.00
2018-12-03T15:50:11.714Z,2.00
2018-12-03T15:52:44.018Z,2.10
2018-12-03T15:55:16.441Z,2.20
2018-12-03T15:57:48.429Z,2.00
2018-12-03T16:00:20.685Z,2.00
2018-12-03T16:02:52.958Z,2.10
2018-12-03T16:05:27.339Z,2.20
2018-12-03T16:07:59.547Z,2.10
2018-12-03T16:10:32.005Z,2.00
2018-12-03T16:13:04.198Z,2.10
2018-12-03T16:15:36.576Z,2.20
2018-12-03T16:18:08.935Z,2.00
2018-12-03T16:20:41.296Z,2.10
2018-12-03T16:23:13.711Z,2.20
2018-12-03T16:25:46.446Z,2.10
2018-12-03T16:28:19.257Z,2.10
2018-12-03T16:30:51.608Z,2.30
2018-12-03T16:33:24.201Z,2.30
2018-12-03T16:35:56.583Z,2.30
2018-12-03T16:38:29.116Z,2.30
2018-12-03T16:41:01.500Z,2.50
2018-12-03T16:43:33.912Z,2.50
2018-12-03T16:46:06.106Z,2.10
2018-12-03T16:48:38.258Z,2.30
2018-12-03T16:51:10.574Z,2.30
2018-12-03T16:53:42.961Z,2.30
2018-12-03T16:56:15.371Z,2.30
2018-12-03T16:58:47.661Z,2.20
2018-12-03T17:01:20.019Z,2.30
2018-12-03T17:03:52.420Z,2.60
2018-12-03T17:06:25.599Z,2.30
2018-12-03T17:08:58.256Z,2.40
2018-12-03T17:11:30.358Z,2.30
2018-12-03T17:14:02.496Z,2.40
2018-12-03T17:16:34.696Z,2.30
2018-12-03T17:19:06.901Z,2.30
2018-12-03T17:21:51.709Z,2.20
2018-12-03T17:24:29.905Z,2.30
2018-12-03T17:27:02.230Z,2.60
2018-12-03T17:29:34.531Z,2.30
2018-12-03T17:32:06.925Z,2.30
2018-12-03T17:34:39.539Z,2.30
2018-12-03T17:37:11.663Z,2.70
2018-12-03T17:39:44.041Z,2.80
2018-12-03T17:42:16.231Z,2.70
2018-12-03T17:44:48.579Z,2.50
2018-12-03T17:47:20.945Z,2.60
2018-12-03T17:49:53.387Z,2.60
2018-12-03T17:52:25.648Z,2.80
2018-12-03T17:54:57.915Z,3.10
2018-12-03T17:57:30.254Z,2.90
2018-12-03T18:00:02.366Z,3.10
2018-12-03T18:02:34.755Z,2.80
2018-12-03T18:05:07.214Z,2.90
2018-12-03T18:07:39.491Z,3.40
2018-12-03T18:10:13.215Z,3.40
2018-12-03T18:12:45.535Z,3.40
2018-12-03T18:15:17.750Z,3.20
2018-12-03T18:17:50.029Z,3.20
2018-12-03T18:20:22.528Z,3.10
2018-12-03T18:22:54.740Z,3.60
2018-12-03T18:25:27.063Z,3.70
2018-12-03T18:27:59.417Z,3.40
2018-12-03T18:30:32.003Z,3.70
2018-12-03T18:33:04.522Z,3.80
2018-12-03T18:35:36.521Z,3.40
2018-12-03T18:38:08.916Z,4.00
2018-12-03T18:40:41.492Z,3.40
2018-12-03T18:43:13.844Z,3.40
2018-12-03T18:45:46.039Z,3.50
2018-12-03T18:48:18.886Z,3.90
2018-12-03T18:50:54.035Z,3.90
2018-12-03T18:53:29.417Z,3.80
2018-12-03T18:56:01.748Z,4.00
2018-12-03T18:58:44.669Z,4.00
2018-12-03T19:01:16.891Z,4.00
2018-12-03T19:03:49.281Z,4.30
2018-12-03T19:06:22.108Z,4.30
2018-12-03T19:08:54.410Z,4.20
2018-12-03T19:11:26.864Z,4.30
2018-12-03T19:13:59.894Z,4.20
2018-12-03T19:16:32.383Z,4.20
2018-12-03T19:19:04.536Z,4.10
2018-12-03T19:21:36.710Z,4.60
2018-12-03T19:24:08.674Z,4.60
2018-12-03T19:26:41.622Z,4.60
2018-12-03T19:29:13.686Z,4.80
2018-12-03T19:31:45.967Z,4.80
2018-12-03T19:34:18.147Z,5.10
2018-12-03T19:36:50.568Z,5.20
2018-12-03T19:39:22.682Z,5.40
2018-12-03T19:41:55.588Z,5.60
2018-12-03T19:44:28.368Z,5.40
2018-12-03T19:47:00.954Z,5.50
2018-12-03T19:49:33.582Z,5.00
2018-12-03T19:52:05.892Z,5.40
2018-12-03T19:54:38.325Z,5.30
2018-12-03T19:57:10.936Z,5.80
2018-12-03T19:59:50.050Z,5.80
2018-12-03T20:02:22.479Z,5.80
2018-12-03T20:04:55.020Z,5.80
2018-12-03T20:07:27.432Z,6.10
2018-12-03T20:10:00.975Z,6.10
2018-12-03T20:12:33.411Z,6.10
2018-12-03T20:15:05.621Z,6.00
2018-12-03T20:17:40.567Z,6.00
2018-12-03T20:20:16.817Z,6.20
2018-12-03T20:22:59.222Z,6.10
2018-12-03T20:25:51.151Z,6.10
2018-12-03T20:28:37.726Z,5.60
2018-12-03T20:31:25.806Z,5.60
2018-12-03T20:34:13.249Z,5.70
2018-12-03T20:37:56.094Z,5.70
2018-12-03T20:40:41.577Z,5.60
2018-12-03T20:43:19.348Z,5.30
2018-12-03T20:46:03.184Z,5.30
2018-12-03T20:48:44.134Z,5.40
2018-12-03T20:51:25.724Z,5.40
2018-12-03T20:53:57.864Z,5.50
2018-12-03T20:56:30.358Z,5.50
2018-12-03T20:59:03.011Z,5.30
2018-12-03T21:01:37.007Z,5.60
2018-12-03T21:04:09.262Z,5.40
2018-12-03T21:06:41.682Z,5.40
2018-12-03T21:09:14.130Z,5.40
2018-12-03T21:11:46.159Z,5.50
2018-12-03T21:14:20.290Z,5.30
2018-12-03T21:16:50.856Z,5.40
2018-12-03T21:19:23.167Z,5.50
2018-12-03T21:21:56.769Z,5.40
2018-12-03T21:24:28.990Z,5.40
2018-12-03T21:27:01.264Z,5.60
2018-12-03T21:29:33.609Z,5.40
2018-12-03T21:32:06.057Z,5.70
2018-12-03T21:34:38.419Z,5.60
2018-12-03T21:37:10.671Z,5.60
2018-12-03T21:39:47.922Z,5.70
2018-12-03T21:42:15.787Z,5.70
2018-12-03T21:44:47.968Z,5.80
2018-12-03T21:47:20.134Z,5.60
2018-12-03T21:49:52.085Z,5.70
2018-12-03T21:52:24.242Z,5.80
2018-12-03T21:54:56.466Z,6.00
2018-12-03T21:57:28.747Z,6.00
2018-12-03T22:00:01.258Z,6.10
2018-12-03T22:02:33.719Z,6.00
2018-12-03T22:05:05.849Z,6.10
2018-12-03T22:07:38.219Z,6.30
2018-12-03T22:10:10.977Z,6.10
2018-12-03T22:12:43.459Z,6.30
2018-12-03T22:15:15.754Z,6.40
2018-12-03T22:17:47.904Z,6.40
2018-12-03T22:20:20.278Z,6.40
2018-12-03T22:22:52.642Z,6.40
2018-12-03T22:25:24.716Z,6.30
2018-12-03T22:27:57.076Z,6.70
2018-12-03T22:30:30.295Z,6.70
2018-12-03T22:33:02.648Z,6.80
2018-12-03T22:35:35.150Z,7.00
2018-12-03T22:38:07.204Z,7.10
2018-12-03T22:40:39.391Z,7.00
2018-12-03T22:43:11.760Z,7.20
2018-12-03T22:45:44.227Z,7.30
2018-12-03T22:48:16.816Z,7.20
2018-12-03T22:50:49.223Z,7.30
2018-12-03T22:53:21.502Z,7.40
2018-12-03T22:55:54.096Z,7.20
2018-12-03T22:58:27.555Z,7.10
2018-12-03T23:01:07.718Z,7.20
2018-12-03T23:03:40.596Z,7.30
2018-12-03T23:06:13.058Z,7.00
2018-12-03T23:08:45.156Z,7.00
2018-12-03T23:11:17.500Z,7.00
2018-12-03T23:13:50.120Z,7.00
2018-12-03T23:16:22.454Z,7.00
2018-12-03T23:18:55.053Z,6.90
2018-12-03T23:21:27.517Z,6.70
2018-12-03T23:23:59.708Z,6.90
2018-12-03T23:26:32.049Z,6.70
2018-12-03T23:29:04.240Z,6.70
2018-12-03T23:31:36.713Z,6.80
2018-12-03T23:34:09.267Z,6.70
2018-12-03T23:36:42.668Z,6.70
2018-12-03T23:39:18.281Z,6.60
2018-12-03T23:41:52.421Z,6.30
2018-12-03T23:44:26.793Z,6.60
2018-12-03T23:47:00.906Z,6.40
2018-12-03T23:49:33.828Z,6.40
2018-12-03T23:54:46.420Z,6.00
2018-12-03T23:57:20.039Z,6.10
2018-12-03T23:59:56.294Z,6.10
